createdAt,value
2022-07-28T00:00:40.494Z,13.72
2022-07-28T00:01:40.521Z,13.72
2022-07-28T00:02:40.494Z,13.72
2022-07-28T00:03:40.486Z,13.72
2022-07-28T00:04:40.451Z,13.71
2022-07-28T00:05:40.445Z,13.69
2022-07-28T00:06:40.453Z,13.71
2022-07-28T00:07:40.447Z,13.69
2022-07-28T00:08:40.418Z,13.71
2022-07-28T00:09:40.402Z,13.71
2022-07-28T00:10:40.418Z,13.68
2022-07-28T00:11:54.329Z,13.68
2022-07-28T00:12:40.363Z,13.66
2022-07-28T00:13:40.363Z,13.66
2022-07-28T00:14:40.406Z,13.68
2022-07-28T00:15:40.333Z,13.69
2022-07-28T00:16:40.498Z,13.69
2022-07-28T00:17:40.319Z,13.69
2022-07-28T00:18:40.296Z,13.71
2022-07-28T00:19:40.293Z,13.68
2022-07-28T00:20:40.272Z,13.68
2022-07-28T00:21:40.323Z,13.69
2022-07-28T00:22:40.266Z,13.71
2022-07-28T00:23:40.246Z,13.71
2022-07-28T00:24:40.269Z,13.73
2022-07-28T00:25:40.244Z,13.75
2022-07-28T00:26:40.241Z,13.76
2022-07-28T00:27:40.203Z,13.79
2022-07-28T00:28:40.187Z,13.81
2022-07-28T00:29:49.175Z,13.81
2022-07-28T00:30:40.172Z,13.80
2022-07-28T00:31:40.231Z,13.80
2022-07-28T00:32:40.152Z,13.79
2022-07-28T00:33:40.266Z,13.79
2022-07-28T00:34:40.735Z,13.80
2022-07-28T00:35:40.107Z,13.81
2022-07-28T00:36:40.129Z,13.81
2022-07-28T00:37:40.220Z,13.80
2022-07-28T00:38:43.837Z,13.79
2022-07-28T00:39:40.096Z,13.80
2022-07-28T00:40:40.063Z,13.79
2022-07-28T00:41:40.066Z,13.76
2022-07-28T00:42:40.059Z,13.75
2022-07-28T00:43:40.026Z,13.75
2022-07-28T00:44:40.008Z,13.79
2022-07-28T00:45:39.995Z,13.80
2022-07-28T00:46:40.075Z,13.76
2022-07-28T00:47:39.980Z,13.79
2022-07-28T00:48:40.132Z,13.79
2022-07-28T00:49:39.961Z,13.79
2022-07-28T00:50:39.959Z,13.79
2022-07-28T00:51:39.950Z,13.75
2022-07-28T00:52:39.968Z,13.75
2022-07-28T00:53:39.923Z,13.75
2022-07-28T00:54:39.910Z,13.75
2022-07-28T00:56:05.766Z,13.72
2022-07-28T00:56:39.897Z,13.68
2022-07-28T00:57:39.857Z,13.68
2022-07-28T00:58:39.858Z,13.68
2022-07-28T00:59:39.840Z,13.65
2022-07-28T01:00:39.838Z,13.65
2022-07-28T01:01:39.949Z,13.62
2022-07-28T01:02:39.981Z,13.62
2022-07-28T01:03:39.790Z,13.62
2022-07-28T01:04:39.791Z,13.63
2022-07-28T01:05:43.482Z,13.61
2022-07-28T01:06:39.793Z,13.57
2022-07-28T01:07:39.746Z,13.59
2022-07-28T01:08:39.744Z,13.57
2022-07-28T01:09:39.753Z,13.55
2022-07-28T01:10:39.737Z,13.54
2022-07-28T01:11:42.886Z,13.53
2022-07-28T01:12:39.704Z,13.51
2022-07-28T01:13:39.697Z,13.46
2022-07-28T01:14:39.676Z,13.47
2022-07-28T01:15:39.731Z,13.44
2022-07-28T01:16:39.695Z,13.41
2022-07-28T01:17:39.758Z,13.35
2022-07-28T01:18:39.628Z,13.28
2022-07-28T01:19:39.734Z,13.27
2022-07-28T01:20:39.624Z,13.28
2022-07-28T01:21:39.615Z,13.29
2022-07-28T01:22:39.592Z,13.29
2022-07-28T01:23:39.572Z,13.31
2022-07-28T01:24:39.577Z,13.31
2022-07-28T01:25:39.576Z,13.32
2022-07-28T01:26:39.582Z,13.31
2022-07-28T01:27:39.524Z,13.31
2022-07-28T01:28:39.526Z,13.29
2022-07-28T01:29:39.538Z,13.29
2022-07-28T01:30:39.534Z,13.29
2022-07-28T01:31:39.606Z,13.29
2022-07-28T01:32:39.493Z,13.25
2022-07-28T01:33:39.526Z,13.21
2022-07-28T01:34:39.467Z,13.21
2022-07-28T01:35:39.454Z,13.21
2022-07-28T01:36:39.446Z,13.22
2022-07-28T01:37:39.441Z,13.22
2022-07-28T01:38:39.476Z,13.22
2022-07-28T01:39:39.409Z,13.24
2022-07-28T01:40:39.394Z,13.25
2022-07-28T01:41:39.401Z,13.28
2022-07-28T01:42:39.394Z,13.27
2022-07-28T01:43:39.361Z,13.28
2022-07-28T01:44:39.346Z,13.27
2022-07-28T01:45:39.568Z,13.29
2022-07-28T01:46:39.354Z,13.32
2022-07-28T01:47:39.335Z,13.35
2022-07-28T01:48:39.363Z,13.36
2022-07-28T01:49:39.380Z,13.35
2022-07-28T01:50:39.277Z,13.35
2022-07-28T01:51:39.314Z,13.35
2022-07-28T01:52:39.302Z,13.35
2022-07-28T01:53:39.244Z,13.28
2022-07-28T01:54:39.239Z,13.24
2022-07-28T01:55:39.237Z,13.24
2022-07-28T01:56:39.236Z,13.24
2022-07-28T01:57:39.236Z,13.24
2022-07-28T01:58:39.213Z,13.21
2022-07-28T01:59:39.196Z,13.17
2022-07-28T02:00:39.199Z,13.10
2022-07-28T02:01:39.254Z,13.09
2022-07-28T02:02:39.160Z,13.07
2022-07-28T02:03:39.143Z,13.10
2022-07-28T02:04:39.165Z,13.10
2022-07-28T02:05:39.126Z,13.13
2022-07-28T02:06:39.190Z,13.13
2022-07-28T02:07:39.095Z,13.09
2022-07-28T02:08:39.084Z,13.09
2022-07-28T02:09:39.183Z,13.07
2022-07-28T02:10:39.069Z,13.09
2022-07-28T02:11:39.101Z,13.09
2022-07-28T02:12:39.063Z,13.10
2022-07-28T02:13:39.031Z,13.12
2022-07-28T02:14:39.028Z,13.13
2022-07-28T02:15:39.055Z,13.13
2022-07-28T02:16:39.083Z,13.13
2022-07-28T02:17:39.004Z,13.14
2022-07-28T02:18:38.974Z,13.14
2022-07-28T02:19:38.963Z,13.14
2022-07-28T02:20:38.943Z,13.16
2022-07-28T02:21:38.935Z,13.13
2022-07-28T02:22:38.947Z,13.12
2022-07-28T02:23:38.919Z,13.10
2022-07-28T02:24:38.903Z,13.07
2022-07-28T02:25:38.899Z,13.06
2022-07-28T02:26:38.885Z,13.03
2022-07-28T02:27:38.897Z,13.03
2022-07-28T02:28:38.882Z,13.03
2022-07-28T02:29:50.896Z,13.03
2022-07-28T02:30:38.948Z,13.01
2022-07-28T02:31:40.528Z,12.99
2022-07-28T02:32:38.842Z,12.96
2022-07-28T02:33:58.534Z,12.98
2022-07-28T02:34:38.860Z,12.98
2022-07-28T02:35:38.789Z,12.96
2022-07-28T02:36:39.003Z,12.96
2022-07-28T02:37:38.834Z,12.96
2022-07-28T02:38:38.761Z,12.95
2022-07-28T02:39:38.779Z,12.94
2022-07-28T02:40:38.821Z,12.91
2022-07-28T02:41:38.714Z,12.89
2022-07-28T02:42:38.863Z,12.89
2022-07-28T02:43:48.988Z,12.88
2022-07-28T02:44:38.728Z,12.87
2022-07-28T02:45:38.694Z,12.84
2022-07-28T02:46:38.738Z,12.81
2022-07-28T02:47:38.712Z,12.80
2022-07-28T02:48:38.783Z,12.79
2022-07-28T02:49:38.633Z,12.79
2022-07-28T02:50:38.692Z,12.77
2022-07-28T02:51:38.603Z,12.74
2022-07-28T02:52:38.618Z,12.77
2022-07-28T02:53:38.581Z,12.76
2022-07-28T02:54:38.679Z,12.76
2022-07-28T02:55:38.577Z,12.74
2022-07-28T02:56:38.571Z,12.73
2022-07-28T02:57:38.558Z,12.73
2022-07-28T02:58:38.586Z,12.70
2022-07-28T02:59:38.516Z,12.66
2022-07-28T03:00:38.549Z,12.66
2022-07-28T03:01:38.674Z,12.62
2022-07-28T03:02:38.509Z,12.59
2022-07-28T03:03:43.772Z,12.56
2022-07-28T03:04:38.518Z,12.56
2022-07-28T03:05:38.484Z,12.56
2022-07-28T03:06:38.469Z,12.51
2022-07-28T03:07:46.516Z,12.51
2022-07-28T03:08:38.433Z,12.52
2022-07-28T03:09:38.410Z,12.49
2022-07-28T03:10:38.432Z,12.49
2022-07-28T03:11:38.393Z,12.48
2022-07-28T03:12:38.431Z,12.46
2022-07-28T03:13:38.393Z,12.41
2022-07-28T03:14:38.379Z,12.37
2022-07-28T03:15:38.352Z,12.34
2022-07-28T03:16:38.420Z,12.33
2022-07-28T03:17:38.382Z,12.29
2022-07-28T03:18:38.308Z,12.25
2022-07-28T03:19:38.370Z,12.25
2022-07-28T03:20:38.301Z,12.23
2022-07-28T03:21:38.354Z,12.21
2022-07-28T03:22:38.295Z,12.21
2022-07-28T03:23:38.295Z,12.16
2022-07-28T03:24:38.246Z,12.15
2022-07-28T03:25:38.221Z,12.12
2022-07-28T03:26:38.220Z,12.12
2022-07-28T03:27:38.226Z,12.12
2022-07-28T03:28:38.223Z,12.11
2022-07-28T03:29:38.179Z,12.08
2022-07-28T03:30:38.253Z,12.07
2022-07-28T03:31:38.163Z,12.07
2022-07-28T03:32:38.166Z,12.04
2022-07-28T03:33:38.186Z,12.03
2022-07-28T03:34:38.126Z,12.01
2022-07-28T03:35:38.118Z,12.03
2022-07-28T03:36:38.119Z,12.01
2022-07-28T03:37:38.131Z,12.01
2022-07-28T03:38:38.077Z,12.01
2022-07-28T03:39:38.073Z,11.98
2022-07-28T03:40:38.073Z,11.97
2022-07-28T03:41:38.043Z,11.93
2022-07-28T03:42:38.060Z,11.90
2022-07-28T03:43:38.031Z,11.88
2022-07-28T03:44:38.048Z,11.87
2022-07-28T03:45:40.859Z,11.87
2022-07-28T03:46:38.037Z,11.84
2022-07-28T03:47:38.034Z,11.85
2022-07-28T03:48:38.021Z,11.85
2022-07-28T03:49:37.961Z,11.84
2022-07-28T03:50:37.939Z,11.85
2022-07-28T03:51:37.990Z,11.85
2022-07-28T03:52:37.957Z,11.84
2022-07-28T03:53:37.919Z,11.85
2022-07-28T03:54:37.898Z,11.84
2022-07-28T03:55:37.901Z,11.82
2022-07-28T03:56:37.883Z,11.81
2022-07-28T03:57:37.890Z,11.82
2022-07-28T03:58:37.959Z,11.82
2022-07-28T03:59:37.846Z,11.82
2022-07-28T04:00:37.828Z,11.81
2022-07-28T04:01:37.900Z,11.81
2022-07-28T04:02:37.912Z,11.81
2022-07-28T04:03:43.572Z,11.81
2022-07-28T04:04:37.793Z,11.84
2022-07-28T04:05:37.800Z,11.82
2022-07-28T04:06:37.774Z,11.84
2022-07-28T04:07:37.833Z,11.84
2022-07-28T04:08:37.762Z,11.84
2022-07-28T04:09:37.748Z,11.84
2022-07-28T04:10:37.815Z,11.84
2022-07-28T04:11:37.712Z,11.85
2022-07-28T04:12:37.739Z,11.85
2022-07-28T04:13:37.746Z,11.85
2022-07-28T04:14:37.679Z,11.85
2022-07-28T04:15:37.713Z,11.85
2022-07-28T04:16:37.719Z,11.84
2022-07-28T04:17:37.662Z,11.85
2022-07-28T04:18:37.638Z,11.84
2022-07-28T04:19:37.620Z,11.84
2022-07-28T04:20:37.696Z,11.85
2022-07-28T04:21:37.609Z,11.87
2022-07-28T04:22:37.602Z,11.85
2022-07-28T04:23:37.652Z,11.90
2022-07-28T04:24:37.573Z,11.85
2022-07-28T04:25:37.568Z,11.87
2022-07-28T04:26:37.545Z,11.88
2022-07-28T04:27:37.543Z,11.85
2022-07-28T04:28:37.524Z,11.87
2022-07-28T04:29:37.517Z,11.84
2022-07-28T04:30:39.553Z,11.87
2022-07-28T04:31:37.496Z,11.88
2022-07-28T04:32:37.529Z,11.88
2022-07-28T04:33:37.487Z,11.85
2022-07-28T04:34:37.456Z,11.87
2022-07-28T04:35:37.446Z,11.85
2022-07-28T04:36:37.529Z,11.90
2022-07-28T04:37:37.521Z,11.93
2022-07-28T04:38:37.402Z,11.93
2022-07-28T04:39:37.444Z,11.93
2022-07-28T04:40:37.412Z,11.93
2022-07-28T04:41:37.374Z,11.93
2022-07-28T04:42:37.377Z,11.93
2022-07-28T04:43:37.361Z,11.96
2022-07-28T04:44:37.338Z,11.97
2022-07-28T04:45:37.468Z,11.97
2022-07-28T04:46:37.445Z,12.01
2022-07-28T04:47:37.341Z,12.01
2022-07-28T04:48:37.324Z,12.01
2022-07-28T04:49:37.296Z,12.04
2022-07-28T04:50:37.322Z,12.07
2022-07-28T04:51:37.353Z,12.12
2022-07-28T04:52:37.276Z,12.18
2022-07-28T04:53:37.359Z,12.23
2022-07-28T04:54:37.232Z,12.29
2022-07-28T04:55:37.215Z,12.33
2022-07-28T04:56:37.209Z,12.38
2022-07-28T04:57:37.230Z,12.37
2022-07-28T04:58:37.180Z,12.40
2022-07-28T04:59:37.175Z,12.44
2022-07-28T05:00:37.166Z,12.43
2022-07-28T05:01:37.252Z,12.48
2022-07-28T05:02:37.249Z,12.46
2022-07-28T05:03:37.141Z,12.51
2022-07-28T05:04:37.180Z,12.51
2022-07-28T05:05:37.103Z,12.56
2022-07-28T05:06:37.085Z,12.59
2022-07-28T05:07:37.213Z,12.62
2022-07-28T05:08:37.068Z,12.63
2022-07-28T05:09:37.062Z,12.71
2022-07-28T05:10:37.057Z,12.73
2022-07-28T05:11:37.037Z,12.81
2022-07-28T05:12:37.087Z,12.89
2022-07-28T05:13:37.024Z,12.95
2022-07-28T05:14:37.010Z,12.99
2022-07-28T05:15:37.065Z,13.01
2022-07-28T05:16:37.047Z,13.06
2022-07-28T05:17:37.016Z,13.10
2022-07-28T05:18:36.960Z,13.13
2022-07-28T05:19:36.964Z,13.21
2022-07-28T05:20:36.930Z,13.29
2022-07-28T05:21:36.934Z,13.38
2022-07-28T05:22:36.928Z,13.48
2022-07-28T05:23:36.903Z,13.57
2022-07-28T05:24:36.972Z,13.65
2022-07-28T05:25:36.933Z,13.72
2022-07-28T05:26:36.870Z,13.79
2022-07-28T05:27:36.885Z,13.84
2022-07-28T05:28:36.862Z,13.88
2022-07-28T05:29:47.840Z,13.98
2022-07-28T05:30:36.846Z,13.98
2022-07-28T05:31:36.873Z,14.01
2022-07-28T05:32:36.814Z,14.08
2022-07-28T05:33:36.783Z,14.16
2022-07-28T05:34:36.793Z,14.04
2022-07-28T05:35:36.778Z,13.98
2022-07-28T05:36:36.808Z,13.98
2022-07-28T05:37:36.823Z,13.99
2022-07-28T05:38:36.746Z,14.08
2022-07-28T05:39:36.727Z,14.19
2022-07-28T05:40:36.720Z,14.16
2022-07-28T05:41:36.708Z,14.21
2022-07-28T05:42:36.718Z,14.29
2022-07-28T05:43:36.675Z,14.41
2022-07-28T05:44:38.385Z,14.48
2022-07-28T05:45:36.712Z,14.60
2022-07-28T05:46:36.651Z,14.71
2022-07-28T05:47:36.659Z,14.83
2022-07-28T05:48:36.708Z,14.93
2022-07-28T05:49:36.609Z,15.00
2022-07-28T05:50:36.604Z,15.09
2022-07-28T05:51:41.289Z,15.19
2022-07-28T05:52:36.636Z,15.27
2022-07-28T05:53:36.577Z,15.31
2022-07-28T05:54:36.575Z,15.40
2022-07-28T05:55:36.538Z,15.44
2022-07-28T05:56:36.554Z,15.44
2022-07-28T05:57:36.579Z,15.41
2022-07-28T05:58:36.511Z,15.48
2022-07-28T05:59:36.496Z,15.51
2022-07-28T06:00:36.504Z,15.55
2022-07-28T06:01:36.568Z,15.62
2022-07-28T06:02:36.586Z,15.70
2022-07-28T06:03:41.806Z,15.77
2022-07-28T06:04:37.107Z,15.81
2022-07-28T06:05:36.436Z,15.80
2022-07-28T06:06:36.443Z,15.88
2022-07-28T06:07:43.148Z,15.91
2022-07-28T06:08:36.409Z,15.92
2022-07-28T06:09:36.393Z,15.91
2022-07-28T06:10:36.374Z,15.88
2022-07-28T06:11:36.367Z,15.78
2022-07-28T06:12:36.385Z,15.71
2022-07-28T06:13:36.352Z,15.52
2022-07-28T06:14:36.343Z,15.40
2022-07-28T06:15:36.329Z,15.30
2022-07-28T06:16:36.345Z,15.27
2022-07-28T06:17:36.310Z,15.27
2022-07-28T06:18:36.288Z,15.27
2022-07-28T06:19:36.287Z,15.27
2022-07-28T06:20:36.270Z,15.25
2022-07-28T06:21:36.291Z,15.30
2022-07-28T06:22:36.330Z,15.37
2022-07-28T06:23:36.226Z,15.44
2022-07-28T06:24:36.229Z,15.53
2022-07-28T06:25:36.221Z,15.62
2022-07-28T06:26:36.379Z,15.68
2022-07-28T06:27:36.217Z,15.73
2022-07-28T06:28:36.176Z,15.71
2022-07-28T06:29:36.170Z,15.76
2022-07-28T06:30:36.154Z,15.84
2022-07-28T06:31:36.237Z,15.91
2022-07-28T06:32:36.155Z,16.01
2022-07-28T06:33:36.138Z,16.07
2022-07-28T06:34:36.103Z,16.08
2022-07-28T06:35:44.994Z,16.04
2022-07-28T06:36:36.127Z,16.08
2022-07-28T06:37:36.115Z,16.11
2022-07-28T06:38:36.061Z,16.06
2022-07-28T06:39:36.064Z,16.08
2022-07-28T06:40:36.038Z,16.08
2022-07-28T06:41:36.025Z,16.08
2022-07-28T06:42:36.024Z,15.96
2022-07-28T06:43:39.064Z,15.93
2022-07-28T06:44:57.508Z,15.92
2022-07-28T06:45:35.987Z,15.95
2022-07-28T06:46:36.037Z,15.96
2022-07-28T06:47:35.972Z,16.06
2022-07-28T06:48:35.984Z,16.03
2022-07-28T06:49:35.970Z,16.07
2022-07-28T06:50:35.917Z,16.14
2022-07-28T06:51:38.307Z,16.17
2022-07-28T06:52:35.915Z,16.11
2022-07-28T06:53:35.902Z,16.18
2022-07-28T06:54:35.893Z,16.26
2022-07-28T06:55:36.136Z,16.36
2022-07-28T06:56:35.845Z,16.48
2022-07-28T06:57:35.867Z,16.54
2022-07-28T06:58:35.827Z,16.57
2022-07-28T06:59:35.830Z,16.55
2022-07-28T07:00:35.887Z,16.54
2022-07-28T07:01:35.837Z,16.51
2022-07-28T07:02:35.803Z,16.52
2022-07-28T07:03:35.782Z,16.50
2022-07-28T07:04:35.875Z,16.54
2022-07-28T07:05:35.796Z,16.62
2022-07-28T07:06:35.743Z,16.66
2022-07-28T07:07:39.717Z,16.66
2022-07-28T07:08:35.759Z,16.67
2022-07-28T07:09:35.740Z,16.65
2022-07-28T07:10:35.698Z,16.69
2022-07-28T07:11:35.699Z,16.77
2022-07-28T07:12:35.697Z,16.80
2022-07-28T07:13:35.697Z,16.75
2022-07-28T07:14:35.686Z,16.82
2022-07-28T07:15:35.731Z,16.87
2022-07-28T07:16:35.681Z,16.88
2022-07-28T07:17:35.742Z,16.92
2022-07-28T07:18:35.617Z,17.00
2022-07-28T07:19:35.605Z,17.09
2022-07-28T07:20:35.616Z,17.18
2022-07-28T07:21:35.591Z,17.25
2022-07-28T07:22:35.715Z,17.24
2022-07-28T07:23:35.586Z,17.30
2022-07-28T07:24:35.560Z,17.35
2022-07-28T07:25:35.606Z,17.35
2022-07-28T07:26:35.571Z,17.38
2022-07-28T07:27:35.563Z,17.28
2022-07-28T07:28:35.503Z,17.25
2022-07-28T07:29:35.486Z,17.30
2022-07-28T07:30:35.496Z,17.33
2022-07-28T07:31:35.582Z,17.43
2022-07-28T07:32:35.485Z,17.57
2022-07-28T07:33:35.442Z,17.66
2022-07-28T07:34:35.556Z,17.77
2022-07-28T07:35:35.576Z,17.86
2022-07-28T07:36:35.471Z,17.96
2022-07-28T07:37:35.420Z,18.01
2022-07-28T07:38:35.539Z,17.94
2022-07-28T07:39:35.384Z,17.96
2022-07-28T07:40:35.384Z,18.02
2022-07-28T07:41:35.369Z,17.96
2022-07-28T07:42:35.367Z,17.92
2022-07-28T07:43:35.381Z,17.87
2022-07-28T07:44:35.355Z,17.83
2022-07-28T07:45:35.307Z,17.91
2022-07-28T07:46:35.403Z,17.96
2022-07-28T07:47:35.330Z,17.98
2022-07-28T07:48:35.419Z,18.02
2022-07-28T07:49:45.539Z,18.10
2022-07-28T07:50:35.272Z,18.14
2022-07-28T07:51:35.247Z,18.26
2022-07-28T07:52:35.259Z,18.17
2022-07-28T07:53:35.299Z,18.26
2022-07-28T07:54:35.230Z,18.39
2022-07-28T07:55:37.716Z,18.28
2022-07-28T07:56:35.202Z,18.09
2022-07-28T07:57:35.204Z,18.01
2022-07-28T07:58:35.272Z,18.07
2022-07-28T07:59:35.195Z,17.87
2022-07-28T08:00:35.167Z,17.80
2022-07-28T08:01:35.187Z,17.92
2022-07-28T08:02:35.150Z,18.14
2022-07-28T08:03:35.322Z,18.26
2022-07-28T08:04:37.200Z,18.42
2022-07-28T08:05:36.399Z,18.59
2022-07-28T08:06:35.833Z,18.69
2022-07-28T08:07:35.104Z,18.86
2022-07-28T08:08:41.682Z,18.76
2022-07-28T08:09:35.050Z,18.60
2022-07-28T08:10:35.055Z,18.35
2022-07-28T08:11:35.025Z,18.17
2022-07-28T08:12:35.066Z,18.34
2022-07-28T08:13:35.041Z,18.54
2022-07-28T08:14:35.008Z,18.76
2022-07-28T08:15:35.030Z,18.97
2022-07-28T08:16:35.030Z,19.12
2022-07-28T08:17:35.049Z,19.30
2022-07-28T08:18:34.951Z,19.40
2022-07-28T08:19:34.942Z,19.45
2022-07-28T08:20:34.927Z,19.45
2022-07-28T08:21:34.930Z,19.53
2022-07-28T08:22:34.945Z,19.60
2022-07-28T08:23:34.885Z,19.57
2022-07-28T08:24:35.124Z,19.49
2022-07-28T08:25:34.875Z,19.52
2022-07-28T08:26:34.899Z,19.38
2022-07-28T08:27:34.867Z,19.47
2022-07-28T08:28:34.825Z,19.31
2022-07-28T08:29:34.847Z,19.20
2022-07-28T08:30:34.836Z,19.28
2022-07-28T08:31:35.408Z,19.42
2022-07-28T08:32:34.818Z,19.65
2022-07-28T08:33:34.793Z,19.78
2022-07-28T08:34:35.103Z,19.92
2022-07-28T08:35:35.715Z,19.97
2022-07-28T08:36:34.772Z,20.10
2022-07-28T08:37:34.761Z,20.07
2022-07-28T08:38:34.741Z,19.97
2022-07-28T08:39:34.728Z,19.97
2022-07-28T08:40:34.714Z,19.94
2022-07-28T08:41:34.706Z,19.92
2022-07-28T08:42:34.709Z,19.97
2022-07-28T08:43:34.683Z,20.07
2022-07-28T08:44:34.666Z,20.22
2022-07-28T08:45:37.007Z,20.37
2022-07-28T08:46:34.752Z,20.46
2022-07-28T08:47:45.763Z,20.27
2022-07-28T08:48:34.663Z,19.90
2022-07-28T08:49:34.611Z,19.87
2022-07-28T08:50:34.587Z,19.78
2022-07-28T08:51:34.623Z,19.95
2022-07-28T08:52:34.593Z,20.08
2022-07-28T08:53:34.559Z,20.22
2022-07-28T08:54:34.579Z,20.22
2022-07-28T08:55:34.558Z,20.30
2022-07-28T08:56:34.543Z,20.41
2022-07-28T08:57:34.544Z,20.46
2022-07-28T08:58:34.499Z,20.57
2022-07-28T08:59:34.486Z,20.58
2022-07-28T09:00:34.504Z,20.35
2022-07-28T09:01:38.991Z,20.33
2022-07-28T09:02:34.652Z,20.54
2022-07-28T09:03:34.495Z,20.66
2022-07-28T09:04:34.437Z,20.61
2022-07-28T09:05:34.422Z,20.78
2022-07-28T09:06:34.415Z,20.83
2022-07-28T09:07:34.418Z,20.87
2022-07-28T09:08:34.411Z,20.96
2022-07-28T09:09:34.398Z,21.03
2022-07-28T09:10:34.373Z,20.98
2022-07-28T09:11:34.381Z,20.85
2022-07-28T09:12:34.369Z,20.58
2022-07-28T09:13:34.333Z,20.34
2022-07-28T09:14:34.332Z,20.34
2022-07-28T09:15:34.346Z,20.46
2022-07-28T09:16:34.325Z,20.64
2022-07-28T09:17:34.308Z,20.87
2022-07-28T09:18:34.285Z,21.08
2022-07-28T09:19:35.698Z,20.79
2022-07-28T09:20:34.285Z,20.68
2022-07-28T09:21:34.248Z,20.83
2022-07-28T09:22:34.272Z,20.46
2022-07-28T09:23:43.976Z,20.50
2022-07-28T09:24:34.228Z,20.63
2022-07-28T09:25:34.295Z,20.78
2022-07-28T09:26:34.230Z,20.97
2022-07-28T09:27:34.228Z,21.16
2022-07-28T09:28:34.228Z,21.08
2022-07-28T09:29:34.161Z,21.03
2022-07-28T09:30:34.166Z,21.18
2022-07-28T09:31:34.269Z,21.38
2022-07-28T09:32:34.185Z,21.61
2022-07-28T09:33:42.175Z,21.74
2022-07-28T09:34:34.156Z,21.86
2022-07-28T09:35:34.087Z,21.86
2022-07-28T09:36:34.095Z,21.96
2022-07-28T09:37:34.094Z,21.77
2022-07-28T09:38:34.052Z,21.33
2022-07-28T09:39:34.042Z,21.34
2022-07-28T09:40:34.039Z,21.46
2022-07-28T09:41:34.028Z,21.63
2022-07-28T09:42:34.054Z,21.79
2022-07-28T09:43:33.990Z,21.38
2022-07-28T09:44:33.992Z,21.03
2022-07-28T09:45:33.986Z,21.18
2022-07-28T09:46:34.198Z,21.37
2022-07-28T09:47:34.261Z,21.61
2022-07-28T09:48:34.099Z,21.66
2022-07-28T09:49:34.141Z,21.68
2022-07-28T09:50:33.931Z,21.81
2022-07-28T09:51:33.947Z,21.91
2022-07-28T09:52:33.930Z,22.11
2022-07-28T09:53:33.904Z,22.19
2022-07-28T09:54:38.723Z,22.20
2022-07-28T09:55:33.934Z,22.17
2022-07-28T09:56:33.906Z,22.11
2022-07-28T09:57:33.861Z,22.21
2022-07-28T09:58:33.878Z,22.31
2022-07-28T09:59:33.916Z,22.46
2022-07-28T10:00:33.818Z,22.31
2022-07-28T10:01:36.754Z,22.23
2022-07-28T10:02:33.857Z,22.14
2022-07-28T10:03:33.775Z,21.90
2022-07-28T10:04:33.777Z,22.02
2022-07-28T10:05:33.857Z,22.11
2022-07-28T10:06:33.767Z,22.11
2022-07-28T10:07:33.762Z,22.04
2022-07-28T10:08:33.720Z,22.12
2022-07-28T10:09:33.741Z,21.67
2022-07-28T10:10:33.732Z,21.55
2022-07-28T10:11:36.509Z,21.63
2022-07-28T10:12:33.699Z,21.77
2022-07-28T10:13:33.690Z,21.53
2022-07-28T10:14:33.681Z,21.48
2022-07-28T10:15:33.809Z,21.56
2022-07-28T10:16:33.684Z,21.73
2022-07-28T10:17:33.769Z,22.02
2022-07-28T10:18:33.618Z,22.33
2022-07-28T10:19:33.641Z,22.14
2022-07-28T10:20:33.627Z,21.89
2022-07-28T10:21:33.590Z,21.73
2022-07-28T10:22:33.627Z,21.71
2022-07-28T10:23:33.565Z,21.93
2022-07-28T10:24:33.559Z,21.79
2022-07-28T10:25:33.559Z,21.26
2022-07-28T10:26:33.628Z,21.12
2022-07-28T10:27:33.580Z,21.26
2022-07-28T10:28:33.507Z,21.48
2022-07-28T10:29:33.513Z,21.74
2022-07-28T10:30:33.556Z,22.02
2022-07-28T10:31:33.491Z,22.24
2022-07-28T10:32:33.516Z,22.48
2022-07-28T10:33:33.451Z,22.51
2022-07-28T10:34:33.461Z,22.46
2022-07-28T10:35:33.432Z,22.74
2022-07-28T10:36:33.457Z,23.07
2022-07-28T10:37:33.431Z,23.31
2022-07-28T10:38:33.407Z,23.41
2022-07-28T10:39:33.394Z,23.47
2022-07-28T10:40:33.413Z,23.57
2022-07-28T10:41:33.389Z,23.79
2022-07-28T10:42:33.405Z,23.93
2022-07-28T10:43:33.374Z,23.94
2022-07-28T10:44:33.339Z,23.84
2022-07-28T10:45:55.094Z,23.90
2022-07-28T10:46:33.393Z,23.84
2022-07-28T10:47:35.959Z,23.53
2022-07-28T10:48:33.376Z,23.32
2022-07-28T10:49:33.504Z,23.16
2022-07-28T10:50:33.307Z,22.93
2022-07-28T10:51:33.255Z,22.79
2022-07-28T10:52:50.545Z,22.78
2022-07-28T10:53:33.254Z,22.85
2022-07-28T10:54:33.284Z,22.85
2022-07-28T10:55:33.232Z,22.93
2022-07-28T10:56:33.230Z,22.94
2022-07-28T10:57:33.207Z,22.99
2022-07-28T10:58:33.178Z,22.99
2022-07-28T10:59:33.183Z,23.19
2022-07-28T11:00:52.844Z,23.32
2022-07-28T11:01:48.408Z,23.56
2022-07-28T11:02:33.368Z,23.31
2022-07-28T11:03:33.320Z,22.99
2022-07-28T11:04:33.200Z,22.96
2022-07-28T11:05:33.172Z,22.97
2022-07-28T11:06:33.100Z,22.89
2022-07-28T11:07:33.109Z,23.07
2022-07-28T11:08:33.077Z,23.39
2022-07-28T11:09:33.179Z,23.69
2022-07-28T11:10:33.089Z,23.92
2022-07-28T11:11:33.040Z,24.02
2022-07-28T11:12:33.109Z,24.16
2022-07-28T11:13:33.321Z,24.27
2022-07-28T11:14:33.051Z,24.08
2022-07-28T11:15:33.000Z,24.11
2022-07-28T11:16:36.683Z,24.27
2022-07-28T11:17:33.763Z,24.36
2022-07-28T11:18:32.972Z,24.31
2022-07-28T11:19:40.740Z,24.33
2022-07-28T11:20:32.945Z,24.30
2022-07-28T11:21:40.954Z,24.19
2022-07-28T11:22:33.217Z,24.11
2022-07-28T11:23:32.899Z,24.23
2022-07-28T11:24:32.916Z,24.26
2022-07-28T11:25:32.950Z,24.30
2022-07-28T11:26:32.879Z,24.36
2022-07-28T11:27:32.883Z,24.11
2022-07-28T11:28:32.872Z,24.16
2022-07-28T11:29:32.866Z,24.09
2022-07-28T11:30:33.056Z,23.87
2022-07-28T11:31:32.857Z,23.75
2022-07-28T11:32:42.282Z,23.89
2022-07-28T11:33:32.855Z,24.06
2022-07-28T11:34:32.795Z,24.12
2022-07-28T11:35:32.861Z,24.24
2022-07-28T11:36:32.795Z,24.39
2022-07-28T11:37:32.790Z,24.33
2022-07-28T11:38:32.779Z,24.09
2022-07-28T11:39:39.869Z,23.90
2022-07-28T11:40:32.736Z,23.97
2022-07-28T11:41:32.762Z,24.14
2022-07-28T11:42:33.208Z,23.44
2022-07-28T11:43:36.578Z,23.06
2022-07-28T11:44:32.696Z,23.16
2022-07-28T11:45:37.547Z,23.29
2022-07-28T11:46:32.703Z,23.44
2022-07-28T11:47:32.689Z,23.68
2022-07-28T11:48:32.727Z,23.82
2022-07-28T11:49:32.711Z,24.02
2022-07-28T11:50:32.670Z,24.19
2022-07-28T11:51:36.173Z,24.41
2022-07-28T11:52:32.653Z,24.49
2022-07-28T11:53:32.623Z,24.53
2022-07-28T11:54:32.604Z,24.60
2022-07-28T11:55:55.542Z,24.63
2022-07-28T11:56:32.578Z,24.63
2022-07-28T11:57:32.611Z,24.52
2022-07-28T11:58:32.533Z,24.59
2022-07-28T11:59:37.244Z,24.56
2022-07-28T12:00:32.517Z,24.66
2022-07-28T12:01:32.563Z,24.75
2022-07-28T12:02:32.596Z,24.87
2022-07-28T12:03:49.523Z,24.98
2022-07-28T12:04:32.517Z,24.67
2022-07-28T12:05:34.358Z,24.52
2022-07-28T12:06:32.469Z,24.75
2022-07-28T12:07:32.490Z,25.05
2022-07-28T12:08:32.472Z,24.98
2022-07-28T12:09:41.786Z,24.23
2022-07-28T12:11:32.429Z,24.56
2022-07-28T12:12:32.402Z,24.77
2022-07-28T12:13:32.426Z,25.01
2022-07-28T12:14:36.001Z,25.24
2022-07-28T12:15:32.365Z,25.39
2022-07-28T12:16:32.544Z,25.48
2022-07-28T12:17:32.339Z,25.54
2022-07-28T12:18:32.322Z,25.59
2022-07-28T12:19:33.008Z,25.69
2022-07-28T12:20:32.309Z,25.69
2022-07-28T12:21:32.386Z,25.48
2022-07-28T12:22:32.281Z,25.11
2022-07-28T12:23:44.207Z,25.02
2022-07-28T12:24:32.279Z,25.12
2022-07-28T12:25:32.265Z,25.19
2022-07-28T12:26:32.213Z,25.35
2022-07-28T12:27:32.360Z,25.48
2022-07-28T12:28:32.234Z,25.48
2022-07-28T12:29:35.877Z,25.36
2022-07-28T12:30:32.235Z,25.42
2022-07-28T12:31:32.222Z,25.48
2022-07-28T12:32:32.212Z,25.53
2022-07-28T12:33:32.191Z,25.49
2022-07-28T12:34:32.136Z,25.45
2022-07-28T12:35:32.133Z,25.36
2022-07-28T12:36:32.262Z,25.24
2022-07-28T12:37:32.314Z,25.39
2022-07-28T12:38:32.150Z,25.53
2022-07-28T12:39:32.095Z,25.71
2022-07-28T12:40:32.116Z,25.81
2022-07-28T12:41:32.086Z,25.85
2022-07-28T12:42:32.068Z,25.63
2022-07-28T12:43:32.044Z,25.64
2022-07-28T12:44:32.050Z,25.79
2022-07-28T12:45:32.034Z,25.39
2022-07-28T12:46:32.029Z,25.31
2022-07-28T12:47:32.086Z,25.22
2022-07-28T12:48:31.986Z,25.36
2022-07-28T12:49:32.027Z,25.11
2022-07-28T12:50:31.968Z,24.97
2022-07-28T12:51:32.052Z,24.92
2022-07-28T12:52:31.978Z,25.01
2022-07-28T12:53:31.995Z,25.16